Time;durP1;ratioP1;P1;durP2;ratioP2;P2;SDS_P1;SDS_P2;PMS_P1;PMS_P2;Temp;Humidity;BMP_temperature;BMP_pressure;BME280_temperature;BME280_humidity;BME280_pressure;Samples;Min_cycle;Max_cycle;Signal;HPM_P1;HPM_P2
2021/07/23 00:00:06;;;;;;;;;;;24.10;75.60;24.00;99540.00;;;;344452;28;83375;-91
2021/07/23 00:00:18;;;;;;;;;;;24.10;75.20;24.00;99533.00;;;;344262;28;90561;-91
2021/07/23 00:00:30;;;;;;;;;;;24.10;74.90;24.00;99535.00;;;;341978;28;82513;-91
2021/07/23 00:00:42;;;;;;;;;;;24.10;75.40;24.00;99538.00;;;;343406;28;89929;-91
2021/07/23 00:00:54;;;;;;;;;;;24.10;75.50;24.10;99537.00;;;;344502;28;83430;-91
2021/07/23 00:01:08;;;;;;;;;;;24.10;74.90;24.10;99536.00;;;;342759;28;91370;-91
2021/07/23 00:01:20;;;;;;;;;;;24.10;75.10;24.10;99540.00;;;;341868;28;83441;-90
2021/07/23 00:01:32;;;;;;;;;;;24.10;74.90;24.20;99544.00;;;;342774;28;92597;-91
2021/07/23 00:01:44;;;;;;;;;;;24.10;75.10;24.10;99538.00;;;;343276;28;83504;-91
2021/07/23 00:01:56;;;;;;;;;;;24.10;75.00;24.20;99543.00;;;;341635;28;91052;-91
2021/07/23 00:02:08;;;;;;;;;;;24.10;75.00;24.10;99538.00;;;;343207;28;83560;-90
2021/07/23 00:02:20;;;;;;;;;;;24.10;75.40;24.10;99532.00;;;;343009;28;91232;-90
2021/07/23 00:02:32;;;;;;;;;;;24.10;75.00;24.10;99543.00;;;;340620;28;83528;-91
2021/07/23 00:02:44;;;;;;;;;;;24.10;75.40;24.00;99537.00;;;;342856;28;90611;-91
2021/07/23 00:02:56;;;;;;;;;;;24.10;76.10;24.00;99539.00;;;;344770;28;83342;-91
2021/07/23 00:03:08;;;;;;;;;;;24.10;75.50;24.00;99542.00;;;;341518;28;92045;-90
2021/07/23 00:03:19;;;;;;;;;;;24.10;75.80;24.00;99536.00;;;;341746;28;82493;-91
2021/07/23 00:03:31;;;;;;;;;;;24.10;76.00;24.00;99541.00;;;;345417;28;92260;-91
2021/07/23 00:03:43;;;;;;;;;;;24.10;76.40;24.00;99544.00;;;;345241;28;83414;-91
2021/07/23 00:04:15;;;;;;;;;;;24.10;76.10;23.90;99536.00;;;;343029;28;90502;-91
2021/07/23 00:04:26;;;;;;;;;;;24.00;75.70;23.90;99538.00;;;;341948;28;82486;-91
2021/07/23 00:04:39;;;;;;;;;;;24.00;76.10;24.00;99536.00;;;;343978;28;90345;-90
2021/07/23 00:04:50;;;;;;;;;;;24.00;75.80;24.00;99541.00;;;;343397;28;82480;-91
2021/07/23 00:05:03;;;;;;;;;;;24.00;75.70;24.00;99543.00;;;;342840;28;92000;-91
2021/07/23 00:05:15;;;;;;;;;;;24.00;75.20;24.00;99539.00;;;;344707;28;83663;-91
2021/07/23 00:05:27;;;;;;;;;;;24.00;75.40;24.00;99545.00;;;;342829;28;91747;-91
2021/07/23 00:05:38;;;;;;;;;;;24.00;75.70;24.10;99535.00;;;;341872;28;83499;-91
2021/07/23 00:05:50;;;;;;;;;;;24.00;75.20;24.10;99540.00;;;;342480;28;93111;-91
2021/07/23 00:06:02;;;;;;;;;;;24.00;75.20;24.10;99537.00;;;;343291;28;82350;-91
2021/07/23 00:06:14;;;;;;;;;;;24.00;75.00;24.00;99533.00;;;;344210;28;92132;-91
2021/07/23 00:06:26;;;;;;;;;;;24.00;75.10;23.90;99538.00;;;;343309;28;83373;-91
2021/07/23 00:06:38;;;;;;;;;;;24.00;75.10;24.00;99530.00;;;;339733;28;90401;-90
2021/07/23 00:06:50;;;;;;;;;;;24.00;75.00;24.00;99534.00;;;;343549;28;83497;-91
2021/07/23 00:07:02;;;;;;;;;;;24.00;75.10;24.00;99536.00;;;;342839;28;90960;-91
2021/07/23 00:07:14;;;;;;;;;;;24.00;75.00;24.00;99536.00;;;;343229;28;83936;-91
2021/07/23 00:07:26;;;;;;;;;;;24.00;74.90;23.90;99537.00;;;;341436;28;90812;-91
2021/07/23 00:07:38;;;;;;;;;;;24.00;75.00;24.00;99535.00;;;;342205;28;82527;-91
2021/07/23 00:07:50;;;;;;;;;;;24.00;75.00;24.00;99532.00;;;;344208;28;91911;-91
2021/07/23 00:08:02;;;;;;;;;;;24.00;74.90;24.10;99539.00;;;;343158;28;83432;-91
2021/07/23 00:08:13;;;;;;;;;;;24.00;74.80;24.10;99532.00;;;;341411;28;90699;-91
2021/07/23 00:08:25;;;;;;;;;;;24.00;75.10;24.10;99526.00;;;;341849;28;83438;-91
2021/07/23 00:08:37;;;;;;;;;;;24.00;75.00;24.00;99526.00;;;;341540;28;91484;-90
2021/07/23 00:08:49;;;;;;;;;;;24.00;75.00;24.10;99529.00;;;;343067;28;83431;-90
2021/07/23 00:09:01;;;;;;;;;;;24.00;74.80;24.10;99541.00;;;;344165;28;90706;-91
2021/07/23 00:09:13;;;;;;;;;;;24.00;74.80;24.20;99537.00;;;;343033;28;83340;-91
2021/07/23 00:09:24;;;;;;;;;;;24.00;74.70;24.30;99532.00;;;;342804;28;91310;-91
2021/07/23 00:09:36;;;;;;;;;;;24.00;74.80;24.20;99534.00;;;;344175;28;83470;-91
2021/07/23 00:09:48;;;;;;;;;;;24.00;74.70;24.20;99530.00;;;;343857;28;92767;-91
2021/07/23 00:10:00;;;;;;;;;;;24.00;74.60;24.20;99533.00;;;;346016;28;83344;-91
2021/07/23 00:10:12;;;;;;;;;;;24.00;74.60;24.20;99527.00;;;;342572;28;91513;-91
2021/07/23 00:10:24;;;;;;;;;;;24.00;74.50;24.20;99534.00;;;;343268;28;83052;-91
2021/07/23 00:10:36;;;;;;;;;;;24.00;74.40;24.20;99531.00;;;;342734;28;90307;-91
2021/07/23 00:10:48;;;;;;;;;;;24.00;74.40;24.30;99523.00;;;;344332;28;83502;-90
2021/07/23 00:11:00;;;;;;;;;;;24.00;74.60;24.30;99532.00;;;;344225;28;91604;-91
2021/07/23 00:11:12;;;;;;;;;;;24.00;74.60;24.10;99535.00;;;;344578;28;83593;-91
2021/07/23 00:11:24;;;;;;;;;;;24.10;74.70;24.20;99541.00;;;;346971;28;90187;-91
2021/07/23 00:11:35;;;;;;;;;;;24.10;74.80;24.30;99531.00;;;;340619;28;83499;-91
2021/07/23 00:11:47;;;;;;;;;;;24.10;74.60;24.30;99523.00;;;;344030;28;92504;-91
2021/07/23 00:11:59;;;;;;;;;;;24.10;74.60;24.20;99533.00;;;;343105;28;83397;-90
2021/07/23 00:12:11;;;;;;;;;;;24.10;74.50;24.20;99527.00;;;;341333;28;91760;-90
2021/07/23 00:12:23;;;;;;;;;;;24.10;74.50;24.20;99528.00;;;;341897;28;82626;-91
2021/07/23 00:12:35;;;;;;;;;;;24.10;74.40;24.20;99532.00;;;;340092;28;91717;-91
2021/07/23 00:12:46;;;;;;;;;;;24.10;74.40;24.10;99524.00;;;;343026;28;83557;-91
2021/07/23 00:12:58;;;;;;;;;;;24.10;74.40;24.10;99529.00;;;;342806;28;92003;-91
2021/07/23 00:13:10;;;;;;;;;;;24.10;74.50;24.10;99530.00;;;;344056;28;83458;-91
2021/07/23 00:13:22;;;;;;;;;;;24.10;74.40;24.10;99528.00;;;;342875;28;91074;-91
2021/07/23 00:13:34;;;;;;;;;;;24.10;74.30;24.00;99524.00;;;;341954;28;83407;-91
2021/07/23 00:13:47;;;;;;;;;;;24.10;74.90;24.00;99527.00;;;;344119;28;91856;-91
2021/07/23 00:13:59;;;;;;;;;;;24.00;74.80;24.00;99526.00;;;;344571;28;82393;-91
2021/07/23 00:14:11;;;;;;;;;;;24.00;74.70;24.10;99519.00;;;;344118;28;90845;-91
2021/07/23 00:14:25;;;;;;;;;;;24.00;74.40;24.00;99522.00;;;;343245;28;82549;-91
2021/07/23 00:14:37;;;;;;;;;;;24.00;74.60;24.00;99524.00;;;;344178;28;90337;-91
2021/07/23 00:14:49;;;;;;;;;;;24.00;74.80;24.00;99523.00;;;;341859;28;83431;-91
2021/07/23 00:15:01;;;;;;;;;;;24.00;75.10;24.10;99525.00;;;;342918;28;90870;-91
2021/07/23 00:15:13;;;;;;;;;;;24.00;74.80;24.20;99518.00;;;;344520;28;83236;-91
2021/07/23 00:15:25;;;;;;;;;;;24.00;74.80;24.20;99521.00;;;;341196;28;91744;-91
2021/07/23 00:15:37;;;;;;;;;;;24.00;74.60;24.20;99524.00;;;;343522;28;83384;-91
2021/07/23 00:15:49;;;;;;;;;;;24.00;74.50;24.20;99527.00;;;;343797;28;91445;-91
2021/07/23 00:16:01;;;;;;;;;;;24.00;74.60;24.20;99522.00;;;;343306;28;82459;-91
2021/07/23 00:16:13;;;;;;;;;;;24.00;74.90;24.20;99529.00;;;;341227;28;90738;-91
2021/07/23 00:16:25;;;;;;;;;;;24.10;74.70;24.10;99521.00;;;;340619;28;83458;-91
2021/07/23 00:16:36;;;;;;;;;;;24.00;74.50;24.10;99516.00;;;;341420;28;91907;-91
2021/07/23 00:16:48;;;;;;;;;;;24.00;74.70;24.10;99520.00;;;;343250;28;83456;-91
2021/07/23 00:17:00;;;;;;;;;;;24.00;74.80;24.00;99526.00;;;;344278;28;90645;-91
2021/07/23 00:17:12;;;;;;;;;;;24.00;75.00;24.10;99526.00;;;;343172;28;83463;-91
2021/07/23 00:17:24;;;;;;;;;;;24.00;75.00;24.00;99524.00;;;;342804;28;91530;-91
2021/07/23 00:17:37;;;;;;;;;;;24.00;75.10;24.00;99514.00;;;;343205;28;83421;-91
2021/07/23 00:17:48;;;;;;;;;;;24.00;75.10;24.10;99527.00;;;;345526;28;91799;-91
2021/07/23 00:18:01;;;;;;;;;;;24.00;74.70;24.10;99514.00;;;;345920;28;83419;-91
2021/07/23 00:18:13;;;;;;;;;;;24.00;74.50;24.10;99518.00;;;;344184;28;91728;-91
2021/07/23 00:18:25;;;;;;;;;;;24.00;74.80;24.00;99524.00;;;;345942;28;83486;-91
2021/07/23 00:18:37;;;;;;;;;;;24.00;75.00;24.00;99518.00;;;;344403;28;92002;-91
2021/07/23 00:18:49;;;;;;;;;;;24.00;74.80;24.10;99529.00;;;;341860;28;83611;-91
2021/07/23 00:19:00;;;;;;;;;;;24.00;74.80;24.10;99525.00;;;;342966;28;89592;-91
2021/07/23 00:19:12;;;;;;;;;;;24.00;74.60;24.20;99528.00;;;;344643;28;83501;-91
2021/07/23 00:19:24;;;;;;;;;;;24.00;74.70;24.10;99523.00;;;;341643;28;90438;-91
2021/07/23 00:19:36;;;;;;;;;;;24.00;74.50;24.10;99522.00;;;;343469;28;83413;-91
2021/07/23 00:19:48;;;;;;;;;;;24.00;74.80;24.20;99522.00;;;;343101;28;92391;-91
2021/07/23 00:20:00;;;;;;;;;;;24.00;74.70;24.00;99519.00;;;;342112;28;82606;-91
2021/07/23 00:20:12;;;;;;;;;;;24.00;75.00;24.00;99525.00;;;;343009;28;91950;-90
2021/07/23 00:20:23;;;;;;;;;;;24.00;74.80;24.00;99521.00;;;;344727;28;83623;-91
2021/07/23 00:20:35;;;;;;;;;;;24.00;74.60;24.00;99517.00;;;;343040;28;91997;-91
2021/07/23 00:20:47;;;;;;;;;;;24.00;75.00;24.10;99521.00;;;;342067;28;83468;-91
2021/07/23 00:20:59;;;;;;;;;;;24.00;74.80;24.00;99520.00;;;;340367;28;91400;-91
2021/07/23 00:21:11;;;;;;;;;;;24.00;74.80;24.00;99514.00;;;;343427;28;83357;-91
2021/07/23 00:21:23;;;;;;;;;;;24.00;75.00;24.10;99523.00;;;;342959;28;90655;-91
2021/07/23 00:21:34;;;;;;;;;;;24.00;74.70;24.00;99522.00;;;;344523;28;83430;-91
2021/07/23 00:21:46;;;;;;;;;;;24.00;75.00;24.00;99525.00;;;;343386;28;92922;-91
2021/07/23 00:21:58;;;;;;;;;;;24.00;75.30;24.10;99522.00;;;;343464;28;82470;-91
2021/07/23 00:22:10;;;;;;;;;;;24.00;75.00;24.20;99527.00;;;;341592;28;90632;-91
2021/07/23 00:22:22;;;;;;;;;;;24.00;75.00;24.20;99528.00;;;;343178;28;83891;-91
2021/07/23 00:22:34;;;;;;;;;;;24.00;75.00;24.10;99526.00;;;;341658;28;90898;-90
2021/07/23 00:22:46;;;;;;;;;;;24.00;74.90;24.10;99527.00;;;;342059;28;83534;-91
2021/07/23 00:22:58;;;;;;;;;;;24.00;75.50;24.20;99527.00;;;;343054;28;90427;-91
2021/07/23 00:23:10;;;;;;;;;;;24.00;74.80;24.10;99519.00;;;;343517;28;83468;-91
2021/07/23 00:23:22;;;;;;;;;;;24.00;75.00;24.20;99516.00;;;;341496;28;90683;-91
2021/07/23 00:23:34;;;;;;;;;;;24.00;74.70;24.20;99524.00;;;;343436;28;83487;-91
2021/07/23 00:23:46;;;;;;;;;;;24.00;74.60;24.10;99521.00;;;;345817;28;92523;-90
2021/07/23 00:23:58;;;;;;;;;;;24.00;74.80;24.20;99517.00;;;;343481;28;83457;-91
2021/07/23 00:24:10;;;;;;;;;;;24.00;74.70;24.20;99525.00;;;;342974;28;92316;-91
2021/07/23 00:24:21;;;;;;;;;;;24.00;74.80;24.00;99518.00;;;;343417;28;83379;-90
2021/07/23 00:24:33;;;;;;;;;;;24.00;75.10;24.00;99528.00;;;;343054;28;90556;-91
2021/07/23 00:24:45;;;;;;;;;;;24.00;75.00;24.10;99521.00;;;;342715;28;83566;-91
2021/07/23 00:24:57;;;;;;;;;;;24.00;74.70;24.10;99521.00;;;;342961;28;91044;-91
2021/07/23 00:25:09;;;;;;;;;;;24.00;74.70;24.10;99517.00;;;;344221;28;82690;-91
2021/07/23 00:25:21;;;;;;;;;;;24.00;74.90;24.10;99527.00;;;;341567;28;91941;-91
2021/07/23 00:25:36;;;;;;;;;;;24.00;74.70;24.20;99528.00;;;;343464;28;83570;-91
2021/07/23 00:25:49;;;;;;;;;;;24.00;74.70;24.10;99516.00;;;;344231;28;92411;-90
2021/07/23 00:26:01;;;;;;;;;;;24.00;75.10;24.10;99527.00;;;;346176;28;82514;-91
2021/07/23 00:26:13;;;;;;;;;;;24.00;75.00;24.10;99521.00;;;;343110;28;91710;-91
2021/07/23 00:26:25;;;;;;;;;;;24.00;74.80;24.00;99517.00;;;;344793;28;82538;-91
2021/07/23 00:26:37;;;;;;;;;;;24.00;74.80;24.00;99520.00;;;;342992;28;90341;-90
2021/07/23 00:26:50;;;;;;;;;;;24.00;74.70;24.00;99520.00;;;;344787;28;83478;-91
2021/07/23 00:27:02;;;;;;;;;;;24.00;74.90;24.10;99516.00;;;;341748;28;90897;-91
2021/07/23 00:27:15;;;;;;;;;;;24.00;74.80;24.20;99525.00;;;;343518;28;83357;-91
2021/07/23 00:27:28;;;;;;;;;;;24.00;74.80;24.20;99523.00;;;;342946;28;91488;-90
2021/07/23 00:27:40;;;;;;;;;;;24.00;74.90;24.10;99518.00;;;;345462;28;83690;-91
2021/07/23 00:27:51;;;;;;;;;;;24.00;75.00;24.00;99518.00;;;;344235;28;92879;-91
2021/07/23 00:28:04;;;;;;;;;;;24.00;75.00;24.10;99521.00;;;;344793;28;82538;-92
2021/07/23 00:28:16;;;;;;;;;;;24.00;74.60;24.00;99525.00;;;;343045;28;90644;-91
2021/07/23 00:28:27;;;;;;;;;;;24.00;74.70;23.90;99523.00;;;;344840;28;83509;-91
2021/07/23 00:28:40;;;;;;;;;;;24.00;75.00;24.00;99522.00;;;;342934;28;90486;-90
2021/07/23 00:28:52;;;;;;;;;;;24.00;75.00;24.00;99522.00;;;;340739;28;82578;-90
2021/07/23 00:29:03;;;;;;;;;;;24.00;74.80;23.90;99522.00;;;;341732;28;91404;-90
2021/07/23 00:29:15;;;;;;;;;;;24.00;74.80;24.00;99519.00;;;;342134;28;82570;-90
2021/07/23 00:29:27;;;;;;;;;;;24.00;74.60;24.00;99528.00;;;;342941;28;92013;-91
2021/07/23 00:29:39;;;;;;;;;;;24.00;74.80;24.00;99527.00;;;;343232;28;84015;-91
2021/07/23 00:29:51;;;;;;;;;;;24.00;74.90;24.00;99520.00;;;;343012;28;91235;-91
2021/07/23 00:30:07;;;;;;;;;;;24.00;74.50;24.00;99529.00;;;;346090;28;83524;-91
2021/07/23 00:30:20;;;;;;;;;;;24.00;74.50;23.90;99524.00;;;;344466;28;90620;-91
2021/07/23 00:30:32;;;;;;;;;;;24.00;74.50;23.90;99521.00;;;;342096;28;83515;-91
2021/07/23 00:30:44;;;;;;;;;;;23.90;74.90;24.00;99522.00;;;;342600;28;91216;-91
2021/07/23 00:30:56;;;;;;;;;;;23.90;75.00;23.90;99519.00;;;;345900;28;84118;-91
2021/07/23 00:31:07;;;;;;;;;;;23.90;74.80;23.90;99527.00;;;;344383;28;90210;-91
2021/07/23 00:31:19;;;;;;;;;;;23.90;75.00;23.90;99524.00;;;;344729;28;83532;-91
2021/07/23 00:31:31;;;;;;;;;;;23.90;74.90;24.00;99525.00;;;;340242;28;92051;-91
2021/07/23 00:31:43;;;;;;;;;;;23.90;75.00;24.00;99535.00;;;;343354;28;83307;-91
2021/07/23 00:31:55;;;;;;;;;;;23.90;74.80;23.90;99529.00;;;;341636;28;91779;-91
2021/07/23 00:32:07;;;;;;;;;;;23.90;75.10;23.80;99529.00;;;;343339;28;83373;-90
2021/07/23 00:32:19;;;;;;;;;;;23.90;75.50;23.80;99525.00;;;;344369;28;91586;-91
2021/07/23 00:32:31;;;;;;;;;;;23.90;75.80;23.80;99518.00;;;;344831;28;82523;-91
2021/07/23 00:32:43;;;;;;;;;;;23.90;75.70;23.80;99521.00;;;;341617;28;92204;-91
2021/07/23 00:32:55;;;;;;;;;;;23.90;76.20;23.80;99528.00;;;;341757;28;83450;-91
2021/07/23 00:33:06;;;;;;;;;;;23.90;75.20;24.00;99517.00;;;;341676;28;90572;-91
2021/07/23 00:33:18;;;;;;;;;;;23.90;75.30;24.00;99516.00;;;;344863;28;82444;-91
2021/07/23 00:33:30;;;;;;;;;;;23.90;75.30;23.90;99523.00;;;;343010;28;90060;-91
2021/07/23 00:33:42;;;;;;;;;;;23.90;75.20;23.90;99527.00;;;;343098;28;83495;-90
2021/07/23 00:33:54;;;;;;;;;;;23.90;75.20;23.90;99525.00;;;;343115;28;92796;-91
2021/07/23 00:34:06;;;;;;;;;;;23.90;75.10;23.90;99528.00;;;;342359;28;83479;-90
2021/07/23 00:34:18;;;;;;;;;;;23.90;75.20;23.90;99524.00;;;;342062;28;90170;-91
2021/07/23 00:34:30;;;;;;;;;;;23.90;75.20;23.90;99526.00;;;;343776;28;83361;-90
2021/07/23 00:34:43;;;;;;;;;;;23.90;75.50;23.80;99524.00;;;;344581;28;90881;-91
2021/07/23 00:34:55;;;;;;;;;;;23.90;75.30;23.90;99530.00;;;;345238;28;83399;-91
2021/07/23 00:35:08;;;;;;;;;;;23.90;75.20;23.80;99524.00;;;;346196;28;90392;-91
2021/07/23 00:35:20;;;;;;;;;;;23.90;75.20;23.80;99525.00;;;;341143;28;82476;-91
2021/07/23 00:35:32;;;;;;;;;;;23.90;75.60;23.80;99525.00;;;;346102;28;90708;-90
2021/07/23 00:35:44;;;;;;;;;;;23.90;76.00;23.80;99516.00;;;;345232;28;82730;-91
2021/07/23 00:35:56;;;;;;;;;;;23.80;75.20;23.90;99525.00;;;;344493;28;91946;-91
2021/07/23 00:36:08;;;;;;;;;;;23.80;75.10;24.00;99525.00;;;;347970;28;82526;-91
2021/07/23 00:36:20;;;;;;;;;;;23.90;75.20;24.00;99529.00;;;;342050;28;90259;-91
2021/07/23 00:36:31;;;;;;;;;;;23.90;75.20;24.00;99526.00;;;;345302;28;83267;-91
2021/07/23 00:36:43;;;;;;;;;;;23.90;75.20;23.90;99523.00;;;;345623;28;90675;-91
2021/07/23 00:36:55;;;;;;;;;;;23.90;75.40;23.90;99520.00;;;;343522;28;82570;-90
2021/07/23 00:37:07;;;;;;;;;;;23.80;75.60;23.80;99523.00;;;;342120;28;89785;-91
2021/07/23 00:37:19;;;;;;;;;;;23.80;75.40;23.80;99521.00;;;;341190;28;83425;-91
2021/07/23 00:37:31;;;;;;;;;;;23.80;75.20;23.80;99521.00;;;;343432;28;90553;-91
2021/07/23 00:37:43;;;;;;;;;;;23.80;74.90;23.90;99520.00;;;;341094;28;82588;-91
2021/07/23 00:37:56;;;;;;;;;;;23.80;74.80;23.90;99521.00;;;;343203;28;91557;-92
2021/07/23 00:38:11;;;;;;;;;;;23.80;75.10;23.90;99524.00;;;;343873;28;83455;-91
2021/07/23 00:38:22;;;;;;;;;;;23.80;75.20;23.90;99529.00;;;;343488;28;90667;-90
2021/07/23 00:38:34;;;;;;;;;;;23.80;75.00;23.90;99527.00;;;;342203;28;83470;-91
2021/07/23 00:38:47;;;;;;;;;;;23.80;75.20;23.90;99518.00;;;;342010;28;92009;-91
2021/07/23 00:38:59;;;;;;;;;;;23.80;74.90;23.90;99520.00;;;;343903;28;82498;-92
2021/07/23 00:39:10;;;;;;;;;;;23.80;74.70;23.80;99515.00;;;;343342;28;90989;-91
2021/07/23 00:39:22;;;;;;;;;;;23.80;75.20;23.80;99523.00;;;;343925;28;84155;-91
2021/07/23 00:39:34;;;;;;;;;;;23.80;75.40;23.80;99522.00;;;;343283;28;92028;-90
2021/07/23 00:39:46;;;;;;;;;;;23.80;75.10;24.00;99523.00;;;;346181;28;83543;-91
2021/07/23 00:39:58;;;;;;;;;;;23.80;75.30;24.00;99523.00;;;;340864;28;92727;-90
2021/07/23 00:40:10;;;;;;;;;;;23.80;75.20;23.90;99515.00;;;;345225;28;83666;-91
2021/07/23 00:40:22;;;;;;;;;;;23.80;75.40;23.90;99520.00;;;;342137;28;91211;-90
2021/07/23 00:40:34;;;;;;;;;;;23.80;75.20;23.90;99521.00;;;;343812;28;83404;-90
2021/07/23 00:40:46;;;;;;;;;;;23.80;75.20;23.90;99518.00;;;;341920;28;90955;-90
2021/07/23 00:40:58;;;;;;;;;;;23.80;74.90;23.90;99519.00;;;;341019;28;83412;-91
2021/07/23 00:41:10;;;;;;;;;;;23.80;75.00;23.80;99509.00;;;;343370;28;91452;-91
2021/07/23 00:41:21;;;;;;;;;;;23.80;75.00;23.90;99519.00;;;;343564;28;83390;-93
2021/07/23 00:41:33;;;;;;;;;;;23.80;74.80;23.90;99517.00;;;;341774;28;90505;-91
2021/07/23 00:41:45;;;;;;;;;;;23.80;74.80;23.80;99515.00;;;;344783;28;83569;-91
2021/07/23 00:41:57;;;;;;;;;;;23.80;74.80;23.90;99515.00;;;;340045;28;92099;-91
2021/07/23 00:42:09;;;;;;;;;;;23.80;74.80;23.80;99520.00;;;;343642;28;82582;-91
2021/07/23 00:42:21;;;;;;;;;;;23.80;75.10;23.90;99519.00;;;;343104;28;91908;-91
2021/07/23 00:42:42;;;;;;;;;;;23.80;74.90;23.80;99517.00;;;;344802;28;83296;-91
2021/07/23 00:42:54;;;;;;;;;;;23.80;75.20;23.80;99518.00;;;;342634;28;91710;-91
2021/07/23 00:43:06;;;;;;;;;;;23.80;75.30;23.90;99515.00;;;;341709;28;82464;-91
2021/07/23 00:43:18;;;;;;;;;;;23.80;75.10;23.90;99519.00;;;;343093;28;91953;-90
2021/07/23 00:43:30;;;;;;;;;;;23.80;75.40;23.80;99514.00;;;;343504;28;83484;-91
2021/07/23 00:43:42;;;;;;;;;;;23.80;75.70;23.90;99513.00;;;;342911;28;90222;-90
2021/07/23 00:43:53;;;;;;;;;;;23.80;75.30;23.90;99513.00;;;;343340;28;83407;-91
2021/07/23 00:44:05;;;;;;;;;;;23.80;75.40;23.80;99510.00;;;;342906;28;91336;-91
2021/07/23 00:44:17;;;;;;;;;;;23.80;75.70;23.80;99512.00;;;;343422;28;83456;-91
2021/07/23 00:44:29;;;;;;;;;;;23.80;75.40;23.80;99503.00;;;;341634;28;92245;-90
2021/07/23 00:44:41;;;;;;;;;;;23.80;75.40;23.70;99513.00;;;;340589;28;83433;-91
2021/07/23 00:44:52;;;;;;;;;;;23.80;75.50;23.70;99514.00;;;;344355;28;91964;-90
2021/07/23 00:45:05;;;;;;;;;;;23.80;75.90;23.60;99512.00;;;;343510;28;83428;-90
2021/07/23 00:45:17;;;;;;;;;;;23.80;76.00;23.60;99515.00;;;;343058;28;91670;-91
2021/07/23 00:45:29;;;;;;;;;;;23.80;75.90;23.70;99511.00;;;;343437;28;83464;-91
2021/07/23 00:45:41;;;;;;;;;;;23.80;75.70;23.90;99505.00;;;;345405;28;90644;-91
2021/07/23 00:45:53;;;;;;;;;;;23.80;75.70;24.00;99510.00;;;;343466;28;83350;-91
2021/07/23 00:46:05;;;;;;;;;;;23.80;75.90;24.00;99508.00;;;;341745;28;93388;-91
2021/07/23 00:46:17;;;;;;;;;;;23.80;75.80;24.00;99506.00;;;;344795;28;83462;-91
2021/07/23 00:46:32;;;;;;;;;;;23.80;75.70;23.90;99509.00;;;;341732;28;91557;-91
2021/07/23 00:46:44;;;;;;;;;;;23.80;75.80;24.00;99503.00;;;;340483;28;83540;-91
2021/07/23 00:46:56;;;;;;;;;;;23.80;75.60;23.80;99506.00;;;;342875;28;91718;-91
2021/07/23 00:47:08;;;;;;;;;;;23.80;75.90;23.80;99502.00;;;;341890;28;82539;-91
2021/07/23 00:47:20;;;;;;;;;;;23.80;75.90;23.90;99503.00;;;;340291;28;91939;-91
2021/07/23 00:47:32;;;;;;;;;;;23.80;75.80;24.00;99503.00;;;;344633;28;82563;-91
2021/07/23 00:47:45;;;;;;;;;;;23.80;75.70;24.00;99498.00;;;;343036;28;89797;-91
2021/07/23 00:48:01;;;;;;;;;;;23.80;75.70;23.90;99500.00;;;;342105;28;83443;-91
2021/07/23 00:48:14;;;;;;;;;;;23.80;76.00;23.90;99505.00;;;;341676;28;91779;-91
2021/07/23 00:48:26;;;;;;;;;;;23.80;75.70;23.90;99505.00;;;;342094;28;82483;-91
2021/07/23 00:48:38;;;;;;;;;;;23.80;75.60;23.90;99503.00;;;;342633;28;92436;-91
2021/07/23 00:48:50;;;;;;;;;;;23.80;76.10;23.80;99505.00;;;;344968;28;82569;-91
2021/07/23 00:49:02;;;;;;;;;;;23.80;76.20;23.80;99503.00;;;;342956;28;91848;-91
2021/07/23 00:49:14;;;;;;;;;;;23.80;76.10;23.70;99502.00;;;;342170;28;83932;-91
2021/07/23 00:49:25;;;;;;;;;;;23.80;76.10;23.70;99503.00;;;;341760;28;90732;-91
2021/07/23 00:49:37;;;;;;;;;;;23.80;76.00;23.70;99506.00;;;;342487;28;83365;-90
2021/07/23 00:49:51;;;;;;;;;;;23.80;75.80;23.70;99504.00;;;;341707;28;92211;-91
2021/07/23 00:50:06;;;;;;;;;;;23.80;75.80;23.80;99507.00;;;;342146;28;82499;-91
2021/07/23 00:50:18;;;;;;;;;;;23.80;75.70;23.80;99501.00;;;;342981;28;92200;-90
2021/07/23 00:50:30;;;;;;;;;;;23.80;75.70;23.70;99503.00;;;;343583;28;83378;-90
2021/07/23 00:50:42;;;;;;;;;;;23.80;76.10;23.70;99494.00;;;;341486;28;90601;-91
2021/07/23 00:50:54;;;;;;;;;;;23.80;76.30;23.60;99493.00;;;;341921;28;83545;-91
2021/07/23 00:51:06;;;;;;;;;;;23.80;76.20;23.60;99496.00;;;;341844;28;87756;-91
2021/07/23 00:51:18;;;;;;;;;;;23.80;76.20;23.80;99504.00;;;;343399;28;83471;-91
2021/07/23 00:51:29;;;;;;;;;;;23.80;75.90;23.80;99503.00;;;;341755;28;92159;-91
2021/07/23 00:51:41;;;;;;;;;;;23.80;76.10;23.80;99496.00;;;;343094;28;82707;-90
2021/07/23 00:51:53;;;;;;;;;;;23.80;76.20;23.80;99499.00;;;;344335;28;91902;-91
2021/07/23 00:52:05;;;;;;;;;;;23.80;76.70;23.70;99498.00;;;;346376;27;83467;-91
2021/07/23 00:52:17;;;;;;;;;;;23.70;76.70;23.80;99502.00;;;;343001;28;91375;-91
2021/07/23 00:52:29;;;;;;;;;;;23.70;76.20;23.80;99497.00;;;;342173;28;83247;-91
2021/07/23 00:52:41;;;;;;;;;;;23.70;76.20;23.80;99501.00;;;;343689;28;90589;-91
2021/07/23 00:52:53;;;;;;;;;;;23.70;76.20;23.80;99497.00;;;;344835;28;82574;-91
2021/07/23 00:53:04;;;;;;;;;;;23.70;75.90;23.80;99499.00;;;;341810;28;91564;-91
2021/07/23 00:53:16;;;;;;;;;;;23.70;76.10;23.70;99493.00;;;;344877;28;83424;-91
2021/07/23 00:53:28;;;;;;;;;;;23.70;76.20;23.80;99494.00;;;;342789;28;91833;-91
2021/07/23 00:53:40;;;;;;;;;;;23.70;76.00;23.80;99495.00;;;;346311;28;82516;-91
2021/07/23 00:53:52;;;;;;;;;;;23.70;75.90;23.80;99493.00;;;;341717;28;91909;-91
2021/07/23 00:54:04;;;;;;;;;;;23.70;76.00;23.80;99498.00;;;;342086;28;82508;-91
2021/07/23 00:54:17;;;;;;;;;;;23.70;76.00;23.90;99490.00;;;;345741;28;92574;-91
2021/07/23 00:54:29;;;;;;;;;;;23.70;76.10;23.90;99497.00;;;;344919;28;82565;-91
2021/07/23 00:54:41;;;;;;;;;;;23.70;75.90;23.80;99494.00;;;;342678;28;92102;-91
2021/07/23 00:54:54;;;;;;;;;;;23.70;76.20;23.80;99496.00;;;;343313;28;82597;-91
2021/07/23 00:55:07;;;;;;;;;;;23.70;76.20;23.90;99496.00;;;;341616;28;90279;-90
2021/07/23 00:55:18;;;;;;;;;;;23.70;76.10;23.90;99495.00;;;;342133;28;83536;-91
2021/07/23 00:55:30;;;;;;;;;;;23.80;76.10;23.90;99495.00;;;;341692;28;91995;-91
2021/07/23 00:55:42;;;;;;;;;;;23.70;75.90;23.90;99497.00;;;;343375;28;83452;-91
2021/07/23 00:55:54;;;;;;;;;;;23.70;75.80;23.80;99494.00;;;;340341;28;91116;-91
2021/07/23 00:56:06;;;;;;;;;;;23.70;76.20;23.70;99498.00;;;;343475;28;82533;-91
2021/07/23 00:56:18;;;;;;;;;;;23.70;76.30;23.80;99492.00;;;;344151;28;93091;-91
2021/07/23 00:56:31;;;;;;;;;;;23.70;76.00;23.80;99494.00;;;;343444;28;83419;-91
2021/07/23 00:56:43;;;;;;;;;;;23.80;76.20;23.80;99493.00;;;;344378;28;91342;-91
2021/07/23 00:56:55;;;;;;;;;;;23.70;76.20;23.90;99497.00;;;;346078;28;83923;-91
2021/07/23 00:57:07;;;;;;;;;;;23.70;76.20;23.90;99496.00;;;;341675;28;91517;-91
2021/07/23 00:57:19;;;;;;;;;;;23.80;76.50;23.90;99492.00;;;;344788;28;82600;-91
2021/07/23 00:57:31;;;;;;;;;;;23.80;76.40;23.90;99491.00;;;;344336;28;92023;-90
2021/07/23 00:57:43;;;;;;;;;;;23.80;76.20;24.00;99489.00;;;;341489;28;82692;-90
2021/07/23 00:57:55;;;;;;;;;;;23.80;76.10;24.00;99492.00;;;;342838;28;91157;-91
2021/07/23 00:58:06;;;;;;;;;;;23.70;76.00;23.90;99495.00;;;;342456;28;83405;-91
2021/07/23 00:58:18;;;;;;;;;;;23.80;76.00;23.90;99495.00;;;;341590;28;92331;-90
2021/07/23 00:58:30;;;;;;;;;;;23.80;75.90;23.90;99491.00;;;;342023;28;82537;-90
2021/07/23 00:58:42;;;;;;;;;;;23.80;75.70;23.90;99493.00;;;;342186;28;90565;-91
2021/07/23 00:58:54;;;;;;;;;;;23.80;75.50;23.90;99498.00;;;;342028;28;82580;-90
2021/07/23 00:59:06;;;;;;;;;;;23.80;75.40;23.80;99494.00;;;;341607;28;91826;-91
2021/07/23 00:59:18;;;;;;;;;;;23.80;75.80;23.80;99495.00;;;;343415;28;83522;-90
2021/07/23 00:59:30;;;;;;;;;;;23.80;75.90;23.80;99497.00;;;;341646;28;91960;-91
2021/07/23 00:59:41;;;;;;;;;;;23.80;75.90;23.80;99489.00;;;;342110;28;83388;-91
2021/07/23 00:59:53;;;;;;;;;;;23.80;75.70;23.90;99496.00;;;;342952;28;91484;-91
2021/07/23 01:00:05;;;;;;;;;;;23.70;75.70;23.90;99495.00;;;;344679;28;83405;-91